Allenton, Michigan
Current Conditions -  °F | °C
As of 5:34 PM on Friday 31 Oct 2014 (Local Time) from KD95 Reporting Station
Light Snow Light Snow  
Wind Chill: 24°   Ceiling: 600
Heat Index: 33°   Visibility: 3mi
Dew Point: 32°   Wind: 12mph
Humidity: 96%   Direction: 10°N
Pressure: 30.01"   Gusts: 23mph
Location:  42.92°N, 82.95°W
Report Text: KD95 312134Z AUTO 01010G20KT 3SM -SN OVC006 01/00 A3001 RMK AO2 T00060001
Loading
Personal Weather Stations






























Interactive Weather Map
Tropical Storm Tracking
New forecast layout! Learn more

10-Day Weather Forecast

Advertisements
Track Severe Weather on mobile